Aviation Digital Data Service (ADDS)

Output produced by METARs form (1320 UTC 24 August 2019)
found at http://www.aviationweather.gov/metar/data/
 
Forecast for: LFTW (NIMES/GARONS (NA, FR)
Text: TAF LFTW 240800Z 2409/2509 VRB05KT CAVOK
Forecast period: 0900 to 1100 UTC 24 August 2019
Forecast type: FROM: standard forecast or significant change
Winds: variable direction winds at 6 MPH (5 knots; 2.6 m/s)
Visibility: 6 or more miles 10+ km)
Ceiling: unknown
Clouds: missing
Weather: NSW  (no significant weather)
Text: BECMG 2411/2413 22010KT
Forecast period: 1100 to 1800 UTC 24 August 2019
Forecast type: BECOMING: Conditions expected to become as follows by 1300 UTC 24 August 2019
Winds: from the SW (220 degrees) at 12 MPH (10 knots; 5.1 m/s)
Visibility: 6 or more miles 10+ km)
Ceiling: unknown
Clouds: missing
Weather: NSW  (no significant weather)
Text: BECMG 2418/2421 VRB05KT
Forecast period: 1800 UTC 24 August 2019 to 0900 UTC 25 August 2019
Forecast type: BECOMING: Conditions expected to become as follows by 2100 UTC 24 August 2019
Winds: variable direction winds at 6 MPH (5 knots; 2.6 m/s)
Visibility: 6 or more miles 10+ km)
Ceiling: unknown
Clouds: missing
Weather: NSW  (no significant weather)